Time;durP1;ratioP1;P1;durP2;ratioP2;P2;SDS_P1;SDS_P2;PMS_P1;PMS_P2;Temp;Humidity;BMP_temperature;BMP_pressure;BME280_temperature;BME280_humidity;BME280_pressure;Samples;Min_cycle;Max_cycle;Signal;HPM_P1;HPM_P2
2021/04/12 00:01:43;;;;;;;9.75;5.53;;;0.50;99.90;;;;;;4195998;28;20043;-78
2021/04/12 00:04:01;;;;;;;14.85;5.93;;;0.50;99.90;;;;;;4183428;28;20525;-78
2021/04/12 00:06:13;;;;;;;12.40;5.40;;;0.40;99.90;;;;;;4198779;28;20557;-79
2021/04/12 00:08:24;;;;;;;10.40;5.35;;;0.30;99.90;;;;;;4215562;28;20032;-78
2021/04/12 00:10:42;;;;;;;7.35;5.32;;;0.20;99.90;;;;;;4208241;28;20040;-77
2021/04/12 00:13:14;;;;;;;6.80;5.05;;;0.10;99.90;;;;;;4214284;28;20408;-78
2021/04/12 00:15:42;;;;;;;10.65;4.85;;;0.10;99.90;;;;;;4198068;28;20029;-78
2021/04/12 00:17:46;;;;;;;12.27;5.97;;;0.00;99.90;;;;;;4179163;28;20037;-77
2021/04/12 00:20:04;;;;;;;8.68;5.30;;;0.00;99.90;;;;;;4182177;28;20116;-77
2021/04/12 00:22:29;;;;;;;15.18;6.32;;;-0.10;99.90;;;;;;4181495;28;20110;-78
2021/04/12 00:24:48;;;;;;;13.98;6.03;;;-0.10;99.90;;;;;;4212360;28;20031;-78
2021/04/12 00:27:02;;;;;;;9.32;5.97;;;-0.20;99.90;;;;;;4197938;28;20036;-78
2021/04/12 00:29:29;;;;;;;13.63;5.97;;;-0.10;99.90;;;;;;4196908;28;20044;-77
2021/04/12 00:31:50;;;;;;;14.25;6.20;;;-0.10;99.90;;;;;;4189306;28;20666;-78
2021/04/12 00:33:59;;;;;;;11.50;6.35;;;-0.10;99.90;;;;;;4174216;28;20065;-78
2021/04/12 00:36:13;;;;;;;11.38;5.60;;;0.00;99.90;;;;;;4180485;28;20032;-78
2021/04/12 00:38:48;;;;;;;15.10;6.57;;;0.10;99.90;;;;;;4196525;28;20154;-78
2021/04/12 00:41:49;;;;;;;13.63;5.90;;;0.20;99.90;;;;;;4211452;28;20086;-78
2021/04/12 00:44:15;;;;;;;14.25;6.90;;;0.20;99.90;;;;;;4192658;28;20031;-78
2021/04/12 00:46:52;;;;;;;10.43;6.65;;;0.30;99.90;;;;;;4188497;28;20020;-78
2021/04/12 00:49:15;;;;;;;10.73;7.72;;;0.30;99.90;;;;;;4211222;28;20115;-78
2021/04/12 00:51:49;;;;;;;17.20;5.88;;;0.30;99.90;;;;;;4193774;28;20032;-78
2021/04/12 00:54:30;;;;;;;9.77;6.28;;;0.40;99.90;;;;;;4171833;28;20036;-78
2021/04/12 00:56:42;;;;;;;10.38;5.90;;;0.50;99.90;;;;;;4195256;28;20173;-78
2021/04/12 00:59:53;;;;;;;15.40;6.05;;;0.60;99.90;;;;;;4195238;28;20041;-78
2021/04/12 01:02:16;;;;;;;11.55;5.45;;;0.70;99.90;;;;;;4160804;28;20037;-78
2021/04/12 01:04:48;;;;;;;11.80;6.03;;;0.80;99.90;;;;;;4192300;28;20047;-78
2021/04/12 01:07:33;;;;;;;15.75;7.03;;;0.90;99.90;;;;;;4192895;28;20028;-78
2021/04/12 01:10:07;;;;;;;;;;;1.00;99.90;;;;;;4179144;28;20048;-78
2021/04/12 01:13:00;;;;;;;11.95;5.25;;;0.90;99.90;;;;;;4212010;28;19919;-78
2021/04/12 01:15:21;;;;;;;10.70;6.20;;;0.90;99.90;;;;;;4209270;28;20410;-78
2021/04/12 01:18:03;;;;;;;12.10;6.05;;;0.90;99.90;;;;;;4195731;28;20041;-79
2021/04/12 01:20:51;;;;;;;11.23;6.00;;;0.90;99.90;;;;;;4193305;28;20036;-77
2021/04/12 01:23:41;;;;;;;9.88;6.68;;;0.90;99.90;;;;;;4179688;28;20047;-77
2021/04/12 01:26:28;;;;;;;13.70;6.38;;;0.80;99.90;;;;;;4194334;28;20040;-78
2021/04/12 01:29:02;;;;;;;10.30;5.70;;;0.80;99.90;;;;;;4194681;28;20036;-77
2021/04/12 01:31:20;;;;;;;13.10;5.65;;;0.80;99.90;;;;;;4196635;28;20078;-77
2021/04/12 01:34:00;;;;;;;15.43;6.68;;;0.80;99.90;;;;;;4194079;28;20045;-77
2021/04/12 01:36:42;;;;;;;11.32;6.25;;;0.80;99.90;;;;;;4208981;28;20049;-78
2021/04/12 01:39:08;;;;;;;7.32;5.47;;;0.70;99.90;;;;;;4185808;28;20037;-77
2021/04/12 01:41:26;;;;;;;11.38;5.63;;;0.70;99.90;;;;;;4194725;28;20102;-77
2021/04/12 01:44:04;;;;;;;13.77;6.05;;;0.70;99.90;;;;;;4194633;28;20036;-78
2021/04/12 01:46:29;;;;;;;10.35;5.97;;;0.60;99.90;;;;;;4196129;28;20028;-77
2021/04/12 01:48:46;;;;;;;;;;;0.40;99.90;;;;;;4211120;28;20929;-77
2021/04/12 01:51:15;;;;;;;12.02;6.60;;;0.30;99.90;;;;;;4193773;28;20352;-78
2021/04/12 01:53:36;;;;;;;13.07;6.03;;;0.50;99.90;;;;;;4189716;28;20032;-77
2021/04/12 01:56:20;;;;;;;11.98;7.28;;;0.50;99.90;;;;;;4209985;28;20491;-77
2021/04/12 01:59:11;;;;;;;11.93;5.80;;;0.50;99.90;;;;;;4193409;28;20590;-78
2021/04/12 02:01:59;;;;;;;9.02;6.28;;;0.60;99.90;;;;;;4207123;28;20036;-78
2021/04/12 02:04:11;;;;;;;9.80;6.85;;;0.70;99.90;;;;;;4198349;28;20241;-78
2021/04/12 02:06:47;;;;;;;9.45;6.75;;;0.70;99.90;;;;;;4194805;28;20052;-78
2021/04/12 02:09:09;;;;;;;14.18;7.15;;;0.80;99.90;;;;;;4192748;28;20033;-79
2021/04/12 02:11:33;;;;;;;14.15;6.40;;;0.80;99.90;;;;;;4188463;28;20029;-78
2021/04/12 02:13:47;;;;;;;11.20;6.50;;;0.90;99.90;;;;;;4195580;28;20040;-78
2021/04/12 02:15:59;;;;;;;;;;;0.90;99.90;;;;;;4195018;28;20048;-78
2021/04/12 02:18:24;;;;;;;9.63;6.22;;;1.00;99.90;;;;;;4211213;28;19912;-79
2021/04/12 02:20:58;;;;;;;;;;;1.00;99.90;;;;;;4194493;28;20102;-78
2021/04/12 02:23:29;;;;;;;11.33;6.47;;;1.00;99.90;;;;;;4177612;28;19927;-79
2021/04/12 02:26:01;;;;;;;10.02;5.75;;;1.00;99.90;;;;;;4193739;28;20124;-78
2021/04/12 02:28:45;;;;;;;8.88;5.68;;;0.90;99.90;;;;;;4188693;28;20499;-79
2021/04/12 02:31:41;;;;;;;8.38;5.22;;;0.90;99.90;;;;;;4180271;28;20032;-79
2021/04/12 02:33:45;;;;;;;11.27;5.05;;;1.00;99.90;;;;;;4209947;28;20040;-78
2021/04/12 02:36:00;;;;;;;;;;;1.00;99.90;;;;;;4194814;28;20028;-78
2021/04/12 02:38:28;;;;;;;10.25;4.80;;;1.00;99.90;;;;;;4195819;28;19916;-78
2021/04/12 02:41:15;;;;;;;11.75;5.38;;;0.90;99.90;;;;;;4193844;28;20391;-78
2021/04/12 02:43:50;;;;;;;7.38;4.80;;;1.00;99.90;;;;;;4164448;28;20025;-78
2021/04/12 02:46:22;;;;;;;12.57;5.90;;;1.10;99.90;;;;;;4192532;28;20024;-79
2021/04/12 02:48:46;;;;;;;9.10;4.75;;;1.20;99.90;;;;;;4207647;28;20067;-79
2021/04/12 02:51:09;;;;;;;13.18;5.53;;;1.40;99.90;;;;;;4191724;28;20499;-79
2021/04/12 02:53:55;;;;;;;10.02;5.28;;;1.50;99.90;;;;;;4183391;28;20043;-78
2021/04/12 02:56:54;;;;;;;10.45;5.07;;;1.50;99.90;;;;;;4193532;28;20044;-78
2021/04/12 02:59:37;;;;;;;12.38;5.15;;;1.40;99.90;;;;;;4176333;28;20035;-78
2021/04/12 03:02:15;;;;;;;11.52;5.00;;;1.20;99.90;;;;;;4192004;28;20028;-78
2021/04/12 03:04:27;;;;;;;7.53;5.53;;;1.00;99.90;;;;;;4206405;28;20028;-79
2021/04/12 03:07:15;;;;;;;9.63;6.13;;;0.90;99.90;;;;;;4195056;28;20119;-79
2021/04/12 03:09:39;;;;;;;10.60;5.90;;;0.80;99.90;;;;;;4171566;28;20021;-78
2021/04/12 03:12:18;;;;;;;8.55;6.05;;;0.70;99.90;;;;;;4192798;28;20039;-78
2021/04/12 03:14:49;;;;;;;13.85;7.28;;;0.60;99.90;;;;;;4203861;28;20432;-78
2021/04/12 03:17:32;;;;;;;11.65;7.22;;;0.60;99.90;;;;;;4191694;28;20782;-79
2021/04/12 03:20:24;;;;;;;13.75;7.63;;;0.60;99.90;;;;;;4193351;28;20043;-78
2021/04/12 03:23:08;;;;;;;11.05;8.05;;;0.60;99.90;;;;;;4201277;28;20087;-78
2021/04/12 03:25:30;;;;;;;13.88;7.85;;;0.70;99.90;;;;;;4209216;28;20134;-78
2021/04/12 03:28:14;;;;;;;16.98;7.60;;;0.70;99.90;;;;;;4195015;28;20071;-79
2021/04/12 03:30:49;;;;;;;15.38;7.20;;;0.70;99.90;;;;;;4191704;28;20033;-78
2021/04/12 03:33:42;;;;;;;11.45;7.55;;;0.80;99.90;;;;;;4174356;28;20169;-78
2021/04/12 03:36:29;;;;;;;14.00;8.07;;;0.70;99.90;;;;;;4173918;28;20041;-78
2021/04/12 03:39:08;;;;;;;10.40;6.95;;;0.60;99.90;;;;;;4193409;28;20086;-77
2021/04/12 03:41:29;;;;;;;8.80;6.75;;;0.60;99.90;;;;;;4186030;28;20441;-79
2021/04/12 03:44:06;;;;;;;15.55;7.40;;;0.60;99.90;;;;;;4193342;28;20511;-76
2021/04/12 03:46:37;;;;;;;11.98;7.35;;;0.50;99.90;;;;;;4208713;28;20059;-77
2021/04/12 03:48:40;;;;;;;12.93;9.63;;;0.40;99.90;;;;;;4192489;28;20070;-77
2021/04/12 03:50:58;;;;;;;13.07;7.82;;;0.40;99.90;;;;;;4193150;28;20083;-77
2021/04/12 03:53:19;;;;;;;11.68;7.72;;;0.40;99.90;;;;;;4186089;28;20052;-79
2021/04/12 03:56:01;;;;;;;15.82;6.85;;;0.50;99.90;;;;;;4207573;28;21026;-77
2021/04/12 03:58:21;;;;;;;10.73;7.43;;;0.50;99.90;;;;;;4186619;28;20033;-78
2021/04/12 04:00:56;;;;;;;13.43;7.78;;;0.50;99.90;;;;;;4191767;28;20444;-77
2021/04/12 04:03:32;;;;;;;10.82;7.72;;;0.60;99.90;;;;;;4193192;28;20029;-77
2021/04/12 04:06:20;;;;;;;16.50;8.10;;;0.60;99.90;;;;;;4206602;28;20036;-77
2021/04/12 04:08:45;;;;;;;16.42;8.43;;;0.60;99.90;;;;;;4193539;28;20206;-78
2021/04/12 04:11:10;;;;;;;11.82;7.95;;;0.60;99.90;;;;;;4192590;28;20442;-77
2021/04/12 04:13:53;;;;;;;14.50;7.50;;;0.60;99.90;;;;;;4193879;28;20037;-78
2021/04/12 04:16:16;;;;;;;11.18;6.65;;;0.50;99.90;;;;;;4191836;28;20115;-77
2021/04/12 04:18:25;;;;;;;11.60;7.22;;;0.50;99.90;;;;;;4194040;28;20036;-77
2021/04/12 04:21:31;;;;;;;13.57;8.70;;;0.40;99.90;;;;;;4195497;28;20033;-78
2021/04/12 04:24:08;;;;;;;11.85;6.43;;;0.40;99.90;;;;;;4162326;28;20033;-77
2021/04/12 04:26:49;;;;;;;14.48;6.78;;;0.40;99.90;;;;;;4178368;28;20449;-77
2021/04/12 04:29:17;;;;;;;12.35;7.55;;;0.40;99.90;;;;;;4192183;28;20040;-78
2021/04/12 04:31:57;;;;;;;12.00;7.60;;;0.30;99.90;;;;;;4212713;28;20066;-78
2021/04/12 04:34:17;;;;;;;14.15;6.50;;;0.20;99.90;;;;;;4196088;28;20086;-79
2021/04/12 04:36:38;;;;;;;9.77;6.97;;;0.10;99.90;;;;;;4196579;28;20032;-78
2021/04/12 04:39:05;;;;;;;14.18;7.60;;;0.00;99.90;;;;;;4179527;28;20049;-78
2021/04/12 04:41:53;;;;;;;11.93;6.78;;;-0.10;99.90;;;;;;4195794;28;20039;-78
2021/04/12 04:44:40;;;;;;;11.82;6.38;;;-0.20;99.90;;;;;;4196228;28;20029;-77
2021/04/12 04:47:08;;;;;;;11.95;6.60;;;-0.30;99.90;;;;;;4196346;28;20065;-77
2021/04/12 04:50:01;;;;;;;15.50;7.22;;;-0.40;99.90;;;;;;4192665;28;20028;-77
2021/04/12 04:52:38;;;;;;;13.60;7.28;;;-0.50;99.90;;;;;;4211994;28;20036;-77
2021/04/12 04:54:53;;;;;;;10.93;6.40;;;-0.60;99.90;;;;;;4211999;28;20051;-77
2021/04/12 04:57:03;;;;;;;11.48;6.95;;;-0.60;99.90;;;;;;4192352;28;20036;-77
2021/04/12 04:59:29;;;;;;;10.02;7.28;;;-0.70;99.90;;;;;;4195388;28;20052;-77
2021/04/12 05:02:33;;;;;;;13.63;7.63;;;-0.80;99.90;;;;;;4191353;28;20135;-77
2021/04/12 05:04:56;;;;;;;12.32;7.10;;;-0.80;99.90;;;;;;4155680;28;20037;-77
2021/04/12 05:07:47;;;;;;;11.27;6.85;;;-0.80;99.90;;;;;;4195163;28;20039;-78
2021/04/12 05:09:53;;;;;;;12.13;7.22;;;-0.90;99.90;;;;;;4195383;28;20033;-77
2021/04/12 05:13:01;;;;;;;15.40;8.00;;;-0.90;99.90;;;;;;4176720;28;20579;-79
2021/04/12 05:15:30;;;;;;;12.48;7.43;;;-0.90;99.90;;;;;;4149045;28;20051;-78
2021/04/12 05:17:51;;;;;;;16.35;8.82;;;-0.90;99.90;;;;;;4193861;28;20040;-78
2021/04/12 05:20:06;;;;;;;16.27;7.93;;;-0.90;99.90;;;;;;4195043;28;20036;-77
2021/04/12 05:22:26;;;;;;;14.75;8.70;;;-0.90;99.90;;;;;;4196178;28;20032;-77
2021/04/12 05:24:38;;;;;;;11.43;8.35;;;-0.80;99.90;;;;;;4178100;28;20040;-76
2021/04/12 05:27:26;;;;;;;13.82;8.18;;;-0.80;99.90;;;;;;4212379;28;20036;-77
2021/04/12 05:30:09;;;;;;;13.80;6.88;;;-0.70;99.90;;;;;;4194234;28;20041;-78
2021/04/12 05:32:38;;;;;;;14.80;7.50;;;-0.50;99.90;;;;;;4190774;28;20071;-78
2021/04/12 05:34:48;;;;;;;10.32;6.53;;;-0.30;99.90;;;;;;4178203;28;20135;-77
2021/04/12 05:37:26;;;;;;;11.88;7.00;;;-0.20;99.90;;;;;;4193485;28;20032;-77
2021/04/12 05:40:00;;;;;;;13.40;7.20;;;-0.10;99.90;;;;;;4191155;28;20540;-76
2021/04/12 05:42:32;;;;;;;9.23;6.35;;;0.00;99.90;;;;;;4193643;28;20040;-77
2021/04/12 05:44:57;;;;;;;11.65;6.95;;;0.10;99.90;;;;;;4195042;28;20373;-77
2021/04/12 05:47:48;;;;;;;12.15;5.53;;;0.30;99.90;;;;;;4195093;28;20428;-77
2021/04/12 05:50:26;;;;;;;9.80;5.85;;;0.50;99.90;;;;;;4146689;28;20437;-79
2021/04/12 05:52:53;;;;;;;10.30;5.85;;;0.60;99.90;;;;;;4178087;28;20033;-79
2021/04/12 05:55:18;;;;;;;10.35;4.68;;;0.80;99.90;;;;;;4180422;28;20071;-78
2021/04/12 05:57:45;;;;;;;10.05;5.80;;;0.90;99.90;;;;;;4193415;28;20036;-78
2021/04/12 06:00:00;;;;;;;10.20;5.45;;;1.00;99.90;;;;;;4184835;28;20033;-79
2021/04/12 06:02:22;;;;;;;11.27;4.30;;;1.20;99.90;;;;;;4194104;28;20032;-79
2021/04/12 06:04:47;;;;;;;12.15;4.30;;;1.30;99.90;;;;;;4212465;28;20043;-78
2021/04/12 06:07:19;;;;;;;9.20;3.85;;;1.50;99.90;;;;;;4195280;28;20029;-80
2021/04/12 06:09:45;;;;;;;8.65;4.53;;;1.60;99.90;;;;;;4194128;28;20033;-78
2021/04/12 06:11:57;;;;;;;5.95;4.28;;;1.70;99.90;;;;;;4178402;28;20115;-77
2021/04/12 06:14:28;;;;;;;4.90;4.20;;;1.70;99.90;;;;;;4194922;28;20041;-79
2021/04/12 06:16:53;;;;;;;7.88;4.32;;;1.80;99.90;;;;;;4193730;28;20495;-78
2021/04/12 06:19:28;;;;;;;6.93;4.65;;;1.80;99.90;;;;;;4195074;28;20125;-79
2021/04/12 06:21:43;;;;;;;5.90;4.22;;;1.90;99.90;;;;;;4206819;28;20078;-77
2021/04/12 06:24:16;;;;;;;6.53;3.97;;;2.00;99.90;;;;;;4194364;28;20036;-79
2021/04/12 06:26:46;;;;;;;5.93;4.18;;;2.10;99.90;;;;;;4185406;28;20087;-79
2021/04/12 06:29:14;;;;;;;7.93;4.32;;;2.10;99.90;;;;;;4195074;28;20043;-79
2021/04/12 06:32:03;;;;;;;9.48;4.43;;;2.10;99.90;;;;;;4203720;28;20519;-77
2021/04/12 06:34:38;;;;;;;6.80;4.88;;;2.10;99.90;;;;;;4202342;28;20032;-78
2021/04/12 06:37:15;;;;;;;5.97;4.00;;;2.10;99.90;;;;;;4165360;28;20143;-79
2021/04/12 06:39:47;;;;;;;10.85;4.70;;;2.20;99.90;;;;;;4185685;28;20127;-78
2021/04/12 06:42:38;;;;;;;9.35;5.15;;;2.30;99.90;;;;;;4185175;28;20036;-79
2021/04/12 06:45:15;;;;;;;8.68;5.03;;;2.30;99.90;;;;;;4194162;28;20037;-78
2021/04/12 06:48:22;;;;;;;6.68;3.85;;;2.30;99.90;;;;;;4202111;28;20039;-78
2021/04/12 06:50:50;;;;;;;6.90;4.50;;;2.40;99.90;;;;;;4206983;28;20083;-78
2021/04/12 06:52:54;;;;;;;6.88;4.20;;;2.50;99.90;;;;;;4191840;28;20059;-78
2021/04/12 06:55:56;;;;;;;8.48;4.28;;;2.50;99.90;;;;;;4192715;28;20487;-79
2021/04/12 06:58:29;;;;;;;6.82;4.47;;;2.60;99.90;;;;;;4160008;28;20041;-78
2021/04/12 07:01:10;;;;;;;7.72;4.40;;;2.60;99.90;;;;;;4188438;28;20106;-78
2021/04/12 07:04:04;;;;;;;7.25;4.43;;;2.70;99.90;;;;;;4205549;28;20048;-79
2021/04/12 07:06:19;;;;;;;7.15;4.38;;;2.80;99.90;;;;;;4201759;28;20040;-78
2021/04/12 07:08:50;;;;;;;5.78;3.83;;;2.90;99.90;;;;;;4193315;28;20029;-78
2021/04/12 07:11:38;;;;;;;9.63;3.60;;;3.00;99.90;;;;;;4187219;28;20433;-79
2021/04/12 07:14:37;;;;;;;8.88;3.95;;;3.20;99.90;;;;;;4176926;28;20021;-78
2021/04/12 07:16:50;;;;;;;4.95;3.45;;;3.30;99.90;;;;;;4191722;28;20040;-79
2021/04/12 07:19:12;;;;;;;3.43;3.07;;;3.50;99.90;;;;;;4209268;28;20090;-79
2021/04/12 07:22:06;;;;;;;6.55;3.67;;;3.70;99.90;;;;;;4187614;28;20082;-79
2021/04/12 07:24:28;;;;;;;4.10;3.70;;;3.80;99.90;;;;;;4188545;28;20352;-79
2021/04/12 07:26:57;;;;;;;3.63;3.30;;;4.00;99.90;;;;;;4192786;28;20043;-79
2021/04/12 07:29:25;;;;;;;4.50;3.05;;;4.10;99.90;;;;;;4193410;28;20476;-79
2021/04/12 07:32:02;;;;;;;8.60;4.18;;;4.20;99.90;;;;;;4190564;28;20094;-79
2021/04/12 07:34:39;;;;;;;12.13;3.92;;;4.20;99.90;;;;;;4188177;28;20047;-80
2021/04/12 07:37:19;;;;;;;3.58;3.17;;;4.30;99.90;;;;;;4157659;28;20036;-79
2021/04/12 07:39:35;;;;;;;7.25;3.40;;;4.50;99.90;;;;;;4203723;28;20479;-80
2021/04/12 07:42:33;;;;;;;10.50;3.40;;;4.80;99.90;;;;;;4193469;28;20041;-80
2021/04/12 07:45:11;;;;;;;6.68;4.18;;;5.20;99.90;;;;;;4193041;28;20044;-79
2021/04/12 07:47:49;;;;;;;4.50;2.72;;;5.70;99.90;;;;;;4174406;28;20588;-79
2021/04/12 07:50:30;;;;;;;4.05;2.55;;;6.10;99.90;;;;;;4177422;28;20048;-79
2021/04/12 07:52:52;;;;;;;3.92;2.60;;;6.10;99.90;;;;;;4184363;28;20134;-80
2021/04/12 07:55:01;;;;;;;3.85;2.60;;;6.00;99.90;;;;;;4194004;28;20068;-80
2021/04/12 07:57:55;;;;;;;4.50;2.40;;;5.90;99.90;;;;;;4193261;28;20029;-80
2021/04/12 08:00:25;;;;;;;3.45;2.20;;;5.70;99.90;;;;;;4187043;28;20033;-80
2021/04/12 08:03:04;;;;;;;3.00;2.10;;;5.60;99.90;;;;;;4228876;28;20055;-80
2021/04/12 08:05:29;;;;;;;2.17;2.03;;;5.60;99.90;;;;;;4211737;28;20111;-80
2021/04/12 08:08:06;;;;;;;3.28;2.42;;;5.50;99.90;;;;;;4211905;28;20119;-79
2021/04/12 08:10:56;;;;;;;2.88;2.38;;;5.70;99.90;;;;;;4175420;28;20471;-79
2021/04/12 08:13:40;;;;;;;2.45;2.25;;;5.70;99.90;;;;;;4200210;28;20425;-79
2021/04/12 08:16:01;;;;;;;3.90;2.65;;;5.70;99.90;;;;;;4177659;28;20033;-79
2021/04/12 08:18:35;;;;;;;2.58;2.33;;;5.70;99.90;;;;;;4210185;28;20560;-79
2021/04/12 08:21:11;;;;;;;6.25;2.40;;;5.60;99.90;;;;;;4209186;28;20471;-80
2021/04/12 08:23:53;;;;;;;4.18;2.63;;;5.40;99.90;;;;;;4210139;28;20027;-80
2021/04/12 08:26:24;;;;;;;2.92;2.30;;;5.30;99.90;;;;;;4194536;28;20131;-79
2021/04/12 08:29:08;;;;;;;5.65;3.00;;;5.10;99.90;;;;;;4211417;28;20127;-79
2021/04/12 08:31:50;;;;;;;4.38;3.88;;;4.80;99.90;;;;;;4208275;28;20039;-80
2021/04/12 08:34:47;;;;;;;5.75;3.17;;;4.80;99.90;;;;;;4194088;28;20091;-79
2021/04/12 08:37:58;;;;;;;4.57;2.28;;;4.80;99.90;;;;;;4145032;28;20085;-80
2021/04/12 08:40:23;;;;;;;4.55;2.80;;;4.90;99.90;;;;;;4144720;28;20108;-80
2021/04/12 08:42:33;;;;;;;10.00;2.60;;;5.10;99.90;;;;;;4144355;28;20195;-80
2021/04/12 08:45:04;;;;;;;7.18;3.05;;;5.30;99.90;;;;;;4168599;28;20032;-80
2021/04/12 08:47:38;;;;;;;5.10;2.80;;;5.50;99.90;;;;;;4193190;28;20580;-80
2021/04/12 08:50:25;;;;;;;5.28;3.10;;;5.70;99.90;;;;;;4211218;28;20104;-79
2021/04/12 08:52:56;;;;;;;5.90;3.05;;;6.10;99.90;;;;;;4211844;28;20118;-80
2021/04/12 08:55:33;;;;;;;4.00;3.00;;;6.60;99.90;;;;;;4188441;28;20115;-80
2021/04/12 08:58:33;;;;;;;3.60;2.55;;;7.20;99.90;;;;;;4209343;28;20051;-81
2021/04/12 09:01:19;;;;;;;5.22;2.40;;;7.40;99.90;;;;;;4152281;28;20030;-81
2021/04/12 09:03:47;;;;;;;3.80;2.72;;;7.10;99.90;;;;;;4193310;28;20086;-79
2021/04/12 09:06:32;;;;;;;3.70;2.70;;;7.60;99.90;;;;;;4195490;28;20081;-78
2021/04/12 09:09:21;;;;;;;2.97;2.53;;;8.00;99.90;;;;;;4193609;28;20587;-78
2021/04/12 09:11:53;;;;;;;4.68;2.85;;;8.30;99.90;;;;;;4175499;28;20059;-78
2021/04/12 09:14:30;;;;;;;7.20;5.07;;;8.10;99.90;;;;;;4195473;28;20036;-78
2021/04/12 09:17:17;;;;;;;3.10;2.80;;;7.70;99.90;;;;;;4211085;28;20041;-79
2021/04/12 09:20:15;;;;;;;3.55;2.85;;;7.00;99.90;;;;;;4210868;28;20502;-79
2021/04/12 09:23:16;;;;;;;3.38;3.08;;;6.80;99.90;;;;;;4187404;28;20052;-79
2021/04/12 09:26:09;;;;;;;5.53;3.40;;;6.70;99.90;;;;;;4192205;28;20880;-79
2021/04/12 09:29:12;;;;;;;5.50;3.22;;;6.40;99.90;;;;;;4194004;28;20045;-79
2021/04/12 09:31:41;;;;;;;4.78;3.30;;;6.70;99.90;;;;;;4159912;28;20586;-79
2021/04/12 09:34:22;;;;;;;4.10;3.70;;;6.80;99.90;;;;;;4177309;28;20029;-79
2021/04/12 09:37:02;;;;;;;5.68;3.40;;;6.60;99.90;;;;;;4209550;28;20032;-80
2021/04/12 09:39:48;;;;;;;3.80;3.50;;;6.70;99.90;;;;;;4203358;28;20100;-79
2021/04/12 09:42:44;;;;;;;5.97;3.80;;;7.10;99.90;;;;;;4190976;28;20483;-79
2021/04/12 09:45:13;;;;;;;3.70;3.40;;;7.10;99.90;;;;;;4194063;28;20041;-78
2021/04/12 09:47:34;;;;;;;4.30;3.70;;;7.40;99.90;;;;;;4193711;28;20198;-80
2021/04/12 09:50:15;;;;;;;3.50;3.20;;;6.90;99.90;;;;;;4210719;28;20055;-80
2021/04/12 09:52:42;;;;;;;3.38;2.83;;;6.50;99.90;;;;;;4193963;28;20460;-80
2021/04/12 09:55:11;;;;;;;6.00;2.72;;;5.60;99.90;;;;;;4193198;28;20060;-81
2021/04/12 09:57:40;;;;;;;2.70;2.50;;;5.00;99.90;;;;;;4174736;28;20128;-79
2021/04/12 10:00:27;;;;;;;2.38;2.25;;;4.40;99.90;;;;;;4193826;28;20036;-80
2021/04/12 10:03:15;;;;;;;4.43;2.35;;;3.80;99.90;;;;;;4166163;28;20516;-79
2021/04/12 10:05:21;;;;;;;4.95;3.08;;;3.50;99.90;;;;;;4192163;28;20029;-77
2021/04/12 10:08:07;;;;;;;3.25;3.05;;;3.20;99.90;;;;;;4194018;28;20135;-81
2021/04/12 10:10:20;;;;;;;4.25;3.05;;;3.20;99.90;;;;;;4175286;28;20492;-78
2021/04/12 10:13:15;;;;;;;3.10;2.90;;;2.90;99.90;;;;;;4193801;28;20024;-79
2021/04/12 10:15:32;;;;;;;3.80;3.22;;;2.90;99.90;;;;;;4174314;28;20062;-79
2021/04/12 10:17:52;;;;;;;3.60;3.08;;;3.00;99.90;;;;;;4194048;28;20033;-77
2021/04/12 10:19:58;;;;;;;3.28;2.97;;;3.30;99.90;;;;;;4193573;28;20032;-78
2021/04/12 10:22:07;;;;;;;3.90;3.45;;;3.60;99.90;;;;;;4193988;28;20055;-78
2021/04/12 10:24:23;;;;;;;4.03;3.38;;;4.20;99.90;;;;;;4177259;28;20032;-78
2021/04/12 10:26:33;;;;;;;4.15;3.40;;;4.80;99.90;;;;;;4194153;28;20126;-78
2021/04/12 10:28:47;;;;;;;4.32;3.92;;;5.40;99.90;;;;;;4176768;28;20029;-77
2021/04/12 10:31:06;;;;;;;;;;;5.90;99.90;;;;;;4178110;28;20041;-79
2021/04/12 10:33:23;;;;;;;3.42;3.22;;;6.70;99.90;;;;;;4177028;28;19912;-78
2021/04/12 10:35:45;;;;;;;2.65;2.45;;;7.00;99.90;;;;;;4193492;28;20061;-78
2021/04/12 10:37:59;;;;;;;2.83;2.60;;;7.10;99.90;;;;;;4176505;28;20036;-78
2021/04/12 10:40:23;;;;;;;3.13;2.83;;;7.40;99.90;;;;;;4192139;28;20129;-78
2021/04/12 10:42:44;;;;;;;4.25;3.10;;;7.70;99.90;;;;;;4176293;28;20570;-78
2021/04/12 10:45:16;;;;;;;3.03;2.63;;;7.70;99.90;;;;;;4191306;28;20082;-78
2021/04/12 10:47:27;;;;;;;3.75;3.17;;;8.00;99.90;;;;;;4167093;28;20088;-78
2021/04/12 10:49:53;;;;;;;2.92;2.72;;;11.00;99.90;;;;;;4191397;28;20066;-78
2021/04/12 10:52:18;;;;;;;2.25;2.15;;;8.90;99.90;;;;;;4195051;28;20032;-78
2021/04/12 10:55:26;;;;;;;3.50;2.40;;;9.50;99.90;;;;;;4176578;28;20503;-80
2021/04/12 10:57:37;;;;;;;3.70;2.63;;;9.30;99.90;;;;;;4191390;28;20043;-79
2021/04/12 11:00:26;;;;;;;3.28;2.97;;;9.70;99.90;;;;;;4205170;28;20040;-78
2021/04/12 11:03:13;;;;;;;3.75;2.42;;;10.30;99.90;;;;;;4192819;28;20150;-78
2021/04/12 11:05:18;;;;;;;2.95;2.75;;;10.30;99.90;;;;;;4169646;28;20040;-78
2021/04/12 11:07:31;;;;;;;3.10;2.90;;;10.10;99.90;;;;;;4192139;28;20396;-78
2021/04/12 11:09:58;;;;;;;3.25;2.95;;;9.70;99.90;;;;;;4190196;28;20043;-78
2021/04/12 11:12:15;;;;;;;2.90;2.70;;;9.70;99.90;;;;;;4189578;28;20052;-78
2021/04/12 11:14:52;;;;;;;2.50;2.30;;;9.90;99.90;;;;;;4203426;28;20138;-78
2021/04/12 11:17:23;;;;;;;2.92;2.70;;;10.60;99.90;;;;;;4209878;28;20499;-78
2021/04/12 11:20:15;;;;;;;3.63;3.10;;;10.80;99.90;;;;;;4174366;28;20040;-78
2021/04/12 11:22:46;;;;;;;3.20;2.90;;;9.60;99.90;;;;;;4149232;28;20040;-78
2021/04/12 11:24:54;;;;;;;4.32;2.90;;;9.90;99.90;;;;;;4176745;28;20100;-78
2021/04/12 11:27:43;;;;;;;6.88;3.17;;;9.60;99.90;;;;;;4192844;28;20090;-78
2021/04/12 11:30:00;;;;;;;3.17;2.67;;;9.60;99.90;;;;;;4197073;28;20483;-78
2021/04/12 11:32:20;;;;;;;2.55;2.35;;;;;;;;;;4192938;28;20032;-77
2021/04/12 11:34:40;;;;;;;3.03;2.72;;;9.20;99.90;;;;;;4192665;28;20036;-79
2021/04/12 11:37:08;;;;;;;5.18;2.85;;;8.70;99.90;;;;;;4193243;28;20098;-78
2021/04/12 11:39:25;;;;;;;6.10;2.70;;;8.30;99.90;;;;;;4167757;28;20041;-77
2021/04/12 11:41:57;;;;;;;2.90;2.70;;;8.90;99.90;;;;;;4192523;28;20040;-77
2021/04/12 11:44:02;;;;;;;3.28;2.50;;;10.10;99.90;;;;;;4167769;28;20467;-76
2021/04/12 11:46:46;;;;;;;3.88;2.65;;;11.10;99.90;;;;;;4176519;28;20029;-78
2021/04/12 11:49:07;;;;;;;5.32;3.08;;;11.30;99.90;;;;;;4192219;28;20120;-77
2021/04/12 11:51:25;;;;;;;3.33;2.83;;;10.40;99.90;;;;;;4189341;28;20029;-78
2021/04/12 11:53:39;;;;;;;4.88;3.15;;;9.40;99.90;;;;;;4207416;28;20028;-79
2021/04/12 11:56:02;;;;;;;3.58;3.28;;;8.70;99.90;;;;;;4209662;28;20028;-80
2021/04/12 11:58:18;;;;;;;5.00;3.38;;;8.10;99.90;;;;;;4200169;28;20059;-78
2021/04/12 12:01:02;;;;;;;4.25;2.78;;;8.10;99.90;;;;;;4192735;28;20025;-79
2021/04/12 12:03:34;;;;;;;4.90;3.20;;;8.20;99.90;;;;;;4208974;28;20172;-78
2021/04/12 12:05:43;;;;;;;3.20;2.92;;;8.20;99.90;;;;;;4193250;28;20079;-77
2021/04/12 12:07:58;;;;;;;4.05;2.83;;;8.00;99.90;;;;;;4209472;28;20421;-78
2021/04/12 12:10:29;;;;;;;4.50;4.00;;;7.60;99.90;;;;;;4199513;28;20040;-79
2021/04/12 12:13:37;;;;;;;5.30;2.67;;;7.30;99.90;;;;;;4208697;28;20044;-79
2021/04/12 12:15:58;;;;;;;3.45;2.97;;;7.20;99.90;;;;;;4137619;28;20038;-78
2021/04/12 12:18:20;;;;;;;4.68;3.35;;;6.80;99.90;;;;;;4155771;28;20136;-78
2021/04/12 12:20:37;;;;;;;5.75;3.20;;;6.60;99.90;;;;;;4168700;28;20091;-79
2021/04/12 12:23:20;;;;;;;5.43;2.92;;;6.40;99.90;;;;;;4185641;28;20033;-80
2021/04/12 12:25:45;;;;;;;3.20;2.95;;;6.20;99.90;;;;;;4189270;28;22375;-80
2021/04/12 12:28:19;;;;;;;5.85;2.75;;;6.10;99.90;;;;;;4169421;28;20476;-81
2021/04/12 12:30:29;;;;;;;;;;;6.20;99.90;;;;;;4180201;28;20083;-77
2021/04/12 12:32:32;;;;;;;3.42;3.15;;;6.10;99.90;;;;;;4208437;28;19970;-79
2021/04/12 12:35:14;;;;;;;5.20;4.78;;;6.00;99.90;;;;;;4175486;28;20415;-79
2021/04/12 12:37:39;;;;;;;4.78;3.30;;;5.40;99.90;;;;;;4171779;28;20033;-80
2021/04/12 12:39:50;;;;;;;4.35;3.20;;;4.70;99.90;;;;;;4202402;28;20032;-79
2021/04/12 12:41:51;;;;;;;6.47;3.85;;;4.30;99.90;;;;;;4212575;28;20430;-79
2021/04/12 12:44:06;;;;;;;8.32;3.88;;;4.10;99.90;;;;;;4195759;28;20487;-79
2021/04/12 12:46:23;;;;;;;4.05;3.60;;;4.00;99.90;;;;;;4193775;28;20055;-79
2021/04/12 12:48:27;;;;;;;5.40;4.40;;;3.90;99.90;;;;;;4168617;28;20427;-79
2021/04/12 12:50:44;;;;;;;4.43;3.85;;;3.90;99.90;;;;;;4179330;28;20053;-78
2021/04/12 12:52:53;;;;;;;4.63;3.92;;;3.90;99.90;;;;;;4177192;28;20117;-78
2021/04/12 12:54:58;;;;;;;8.25;3.72;;;3.90;99.90;;;;;;4190229;28;20040;-80
2021/04/12 12:57:20;;;;;;;10.02;4.75;;;4.00;99.90;;;;;;4194070;28;20511;-78
2021/04/12 12:59:27;;;;;;;5.95;3.45;;;4.20;99.90;;;;;;4193476;28;20111;-78
2021/04/12 13:01:38;;;;;;;5.93;4.10;;;4.30;99.90;;;;;;4177764;28;20462;-79
2021/04/12 13:03:45;;;;;;;4.50;3.47;;;4.40;99.90;;;;;;4177445;28;20032;-77
2021/04/12 13:05:50;;;;;;;4.15;3.60;;;4.50;99.90;;;;;;4192280;28;20043;-77
2021/04/12 13:08:05;;;;;;;7.72;4.40;;;4.60;99.90;;;;;;4194567;28;20073;-77
2021/04/12 13:10:10;;;;;;;9.77;4.07;;;5.00;99.90;;;;;;4181786;28;20024;-77